Time;durP1;ratioP1;P1;durP2;ratioP2;P2;SDS_P1;SDS_P2;PMS_P1;PMS_P2;Temp;Humidity;BMP_temperature;BMP_pressure;BME280_temperature;BME280_humidity;BME280_pressure;Samples;Min_cycle;Max_cycle;Signal;HPM_P1;HPM_P2
2023/01/10 00:00:47;;;;;;;2.05;1.73;;;;;;;7.46;90.40;99589.34;4974366;28;20516;-78
2023/01/10 00:03:14;;;;;;;6.45;1.77;;;;;;;7.48;90.04;99590.03;4964883;28;20125;-77
2023/01/10 00:05:41;;;;;;;4.85;1.65;;;;;;;7.47;89.99;99594.50;4964178;28;20598;-81
2023/01/10 00:08:08;;;;;;;2.35;1.73;;;;;;;7.47;89.71;99591.84;4967754;28;20057;-78
2023/01/10 00:10:34;;;;;;;4.15;1.73;;;;;;;7.46;89.50;99592.81;4956650;28;20630;-78
2023/01/10 00:15:47;;;;;;;8.02;2.33;;;;;;;7.42;89.49;99607.22;4966499;28;20057;-78
2023/01/10 00:18:14;;;;;;;3.95;1.70;;;;;;;7.40;89.73;99622.34;4960531;28;20042;-79
2023/01/10 00:20:43;;;;;;;3.35;1.85;;;;;;;7.39;89.86;99626.78;4951525;28;20045;-78
2023/01/10 00:23:10;;;;;;;4.85;1.88;;;;;;;7.36;90.17;99624.41;4970645;28;20058;-78
2023/01/10 00:25:37;;;;;;;3.95;1.85;;;;;;;7.37;90.03;99638.44;4968590;28;20425;-78
2023/01/10 00:30:34;;;;;;;5.93;1.90;;;;;;;7.32;90.23;99646.72;5002008;28;21205;-77
2023/01/10 00:33:00;;;;;;;4.07;1.58;;;;;;;7.32;90.16;99646.72;4982496;28;20125;-78
2023/01/10 00:35:27;;;;;;;4.07;1.40;;;;;;;7.33;90.19;99652.88;4947041;28;20050;-78
2023/01/10 00:38:00;;;;;;;6.70;2.28;;;;;;;7.33;90.20;99648.41;4951101;28;20046;-78
2023/01/10 00:40:26;;;;;;;3.60;1.50;;;;;;;7.32;90.04;99662.56;4968479;28;20625;-78
2023/01/10 00:45:38;;;;;;;4.43;2.08;;;;;;;7.32;90.36;99673.13;4985776;28;20457;-78
2023/01/10 00:48:05;;;;;;;4.85;2.10;;;;;;;7.32;90.34;99669.66;4952906;28;20503;-78
2023/01/10 00:50:32;;;;;;;4.35;2.28;;;;;;;7.31;90.29;99673.28;4970287;28;20041;-78
2023/01/10 00:52:59;;;;;;;3.55;2.22;;;;;;;7.30;90.29;99677.72;4952929;28;20042;-78
2023/01/10 00:55:25;;;;;;;3.08;1.95;;;;;;;7.35;89.75;99690.53;4971181;28;20153;-78
2023/01/10 00:57:52;;;;;;;5.13;1.90;;;;;;;7.30;90.26;99690.06;4964012;28;20129;-78
2023/01/10 01:00:19;;;;;;;3.08;2.08;;;;;;;7.28;90.26;99707.84;4972391;28;20124;-79
2023/01/10 01:02:47;;;;;;;5.57;1.92;;;;;;;7.25;91.03;99714.22;4953361;28;20532;-78
2023/01/10 01:05:13;;;;;;;2.33;1.60;;;;;;;7.24;91.07;99723.06;4996812;28;20058;-78
2023/01/10 01:07:40;;;;;;;2.45;1.55;;;;;;;7.21;91.46;99730.41;4981507;28;20042;-78
2023/01/10 01:10:25;;;;;;;4.10;1.77;;;;;;;7.30;90.15;99737.59;4951967;28;20056;-77
2023/01/10 01:12:57;;;;;;;6.57;1.88;;;;;;;7.22;90.67;99742.63;4948957;28;20046;-78
2023/01/10 01:15:25;;;;;;;5.18;2.10;;;;;;;7.17;91.46;99742.97;4996930;28;20046;-78
2023/01/10 01:17:52;;;;;;;3.30;1.77;;;;;;;7.18;91.83;99747.31;4966421;28;20073;-78
2023/01/10 01:20:20;;;;;;;2.97;1.70;;;;;;;7.18;92.13;99766.63;4958739;28;20433;-77
2023/01/10 01:22:47;;;;;;;5.10;2.60;;;;;;;7.21;91.52;99770.00;4958079;28;20046;-78
2023/01/10 01:25:14;;;;;;;4.88;2.00;;;;;;;7.21;91.59;99783.22;4970724;28;20397;-78
2023/01/10 01:27:41;;;;;;;3.13;1.90;;;;;;;7.21;91.49;99791.13;4997151;28;20510;-78
2023/01/10 01:30:09;;;;;;;3.58;1.77;;;;;;;7.24;91.39;99783.81;4986691;28;20052;-78
2023/01/10 01:32:36;;;;;;;6.15;2.03;;;;;;;7.24;91.01;99796.19;4966777;28;20048;-78
2023/01/10 01:35:04;;;;;;;3.88;1.98;;;;;;;7.18;91.39;99800.97;4950843;28;20054;-81
2023/01/10 01:37:31;;;;;;;5.90;1.98;;;;;;;7.19;91.50;99809.72;4970458;28;20444;-78
2023/01/10 01:39:58;;;;;;;4.45;2.15;;;;;;;7.21;91.76;99801.69;4956697;28;20045;-77
2023/01/10 01:42:33;;;;;;;3.95;2.13;;;;;;;7.16;92.34;99821.38;4965087;28;20048;-79
2023/01/10 01:45:21;;;;;;;2.35;2.15;;;;;;;7.10;91.97;99821.84;4984084;28;20137;-78
2023/01/10 01:47:55;;;;;;;4.70;2.20;;;;;;;7.15;92.34;99821.50;4964030;28;20045;-78
2023/01/10 01:50:28;;;;;;;2.63;2.03;;;;;;;7.10;92.22;99832.41;4982564;28;20054;-77
2023/01/10 01:52:56;;;;;;;4.30;2.70;;;;;;;7.11;92.13;99842.00;4969325;28;20051;-78
2023/01/10 01:55:24;;;;;;;2.63;2.10;;;;;;;7.14;91.91;99830.34;4894529;28;20137;-78
2023/01/10 01:57:53;;;;;;;5.93;2.17;;;;;;;7.14;91.92;99840.91;4925465;28;20048;-78
2023/01/10 02:00:20;;;;;;;3.70;2.10;;;;;;;7.12;92.49;99841.06;4911531;28;20055;-78
2023/01/10 02:02:52;;;;;;;4.03;2.17;;;;;;;7.15;91.80;99863.75;4925525;28;20687;-82
2023/01/10 02:05:30;;;;;;;4.22;2.20;;;;;;;7.16;91.62;99870.69;4897668;28;20494;-78
2023/01/10 02:07:58;;;;;;;5.38;2.42;;;;;;;7.18;91.39;99877.56;4926237;28;20498;-78
2023/01/10 02:10:39;;;;;;;5.15;2.50;;;;;;;7.17;91.47;99882.94;4925362;28;20549;-78
2023/01/10 02:13:08;;;;;;;2.08;1.88;;;;;;;7.17;92.12;99890.84;4864194;28;20046;-77
2023/01/10 02:15:35;;;;;;;3.10;2.00;;;;;;;7.16;92.06;99883.91;4909868;28;20478;-77
2023/01/10 02:18:02;;;;;;;4.15;2.20;;;;;;;7.18;92.32;99892.56;4926164;28;20118;-78
2023/01/10 02:20:56;;;;;;;5.63;1.90;;;;;;;7.17;92.17;99896.16;4941167;28;20102;-79
2023/01/10 02:23:43;;;;;;;3.10;1.70;;;;;;;7.09;92.55;99903.78;4892912;28;20055;-78
2023/01/10 02:26:31;;;;;;;2.30;1.73;;;;;;;7.14;92.63;99917.50;4912036;28;20046;-80
2023/01/10 02:29:07;;;;;;;3.22;1.75;;;;;;;7.15;91.41;99924.47;5006123;28;20117;-78
2023/01/10 02:32:02;;;;;;;3.15;1.85;;;;;;;7.06;91.14;99920.69;5023935;28;20050;-78
2023/01/10 02:34:54;;;;;;;3.28;1.85;;;;;;;7.02;92.34;99927.16;4961038;28;20126;-78
2023/01/10 02:37:36;;;;;;;3.80;1.88;;;;;;;7.03;92.86;99933.28;4962782;28;20104;-80
2023/01/10 02:40:21;;;;;;;3.70;1.65;;;;;;;7.04;92.48;99933.16;4978132;28;20052;-78
2023/01/10 02:42:58;;;;;;;4.25;1.90;;;;;;;7.08;91.91;99942.56;4983304;28;20151;-78
2023/01/10 02:45:35;;;;;;;7.20;2.28;;;;;;;7.05;92.55;99956.00;4961091;28;20050;-78
2023/01/10 02:48:02;;;;;;;3.95;1.77;;;;;;;7.08;92.93;99954.91;4965979;28;20054;-83
2023/01/10 02:50:29;;;;;;;2.60;1.88;;;;;;;7.10;92.71;99955.66;4995116;28;20046;-77
2023/01/10 02:53:02;;;;;;;2.67;2.25;;;;;;;7.01;92.57;99957.16;4984126;28;20097;-78
2023/01/10 02:55:43;;;;;;;3.28;1.98;;;;;;;6.99;92.84;99953.78;4959216;28;20050;-78
2023/01/10 02:58:22;;;;;;;6.85;2.25;;;;;;;7.05;92.43;99957.78;4990696;28;20038;-78
2023/01/10 03:01:02;;;;;;;2.50;1.65;;;;;;;7.03;90.85;99964.97;5010770;28;20042;-78
2023/01/10 03:03:32;;;;;;;1.52;1.42;;;;;;;7.07;91.57;99977.84;4963401;28;20046;-78
2023/01/10 03:06:17;;;;;;;3.58;1.80;;;;;;;6.96;92.01;99977.75;4992494;28;20049;-78
2023/01/10 03:09:04;;;;;;;3.83;1.55;;;;;;;6.99;90.93;99976.69;4943849;28;20049;-77
2023/01/10 03:11:42;;;;;;;1.85;1.50;;;;;;;7.02;91.58;99987.03;4936821;28;20049;-78
2023/01/10 03:14:15;;;;;;;2.85;1.63;;;;;;;6.99;92.26;99996.00;4998290;28;20046;-78
2023/01/10 03:16:46;;;;;;;3.05;1.60;;;;;;;6.96;92.78;99997.06;4985403;28;20537;-79
2023/01/10 03:19:16;;;;;;;3.38;1.70;;;;;;;6.96;93.00;99996.22;4979118;28;20042;-78
2023/01/10 03:21:43;;;;;;;4.55;1.75;;;;;;;6.96;93.45;100004.16;4963614;28;20615;-78
2023/01/10 03:24:18;;;;;;;3.92;1.60;;;;;;;6.97;92.74;100008.47;4951699;28;20042;-78
2023/01/10 03:26:55;;;;;;;2.92;1.48;;;;;;;6.94;92.34;100006.06;4943572;28;20038;-78
2023/01/10 03:29:27;;;;;;;2.25;1.55;;;;;;;6.96;91.86;100009.44;4958783;28;20053;-78
2023/01/10 03:31:57;;;;;;;2.97;1.20;;;;;;;6.98;91.87;100017.25;4983014;28;20136;-78
2023/01/10 03:34:25;;;;;;;7.68;2.40;;;;;;;6.96;92.24;100020.00;4999307;28;20104;-78
2023/01/10 03:37:00;;;;;;;2.28;1.45;;;;;;;6.93;92.57;100025.50;4952236;28;20428;-77
2023/01/10 03:39:39;;;;;;;2.33;1.50;;;;;;;6.92;91.81;100029.06;4977560;28;20981;-78
2023/01/10 03:42:20;;;;;;;2.10;1.45;;;;;;;6.91;91.65;100022.94;4968970;28;20440;-78
2023/01/10 03:44:56;;;;;;;2.38;1.15;;;;;;;6.96;91.65;100028.75;4993645;28;20042;-78
2023/01/10 03:47:40;;;;;;;2.42;1.50;;;;;;;6.96;91.24;100028.75;4969299;28;20051;-78
2023/01/10 03:50:19;;;;;;;3.45;1.40;;;;;;;6.91;90.90;100037.94;4968328;28;20080;-77
2023/01/10 03:52:46;;;;;;;3.05;1.67;;;;;;;6.93;91.18;100042.16;4982298;28;20946;-78
2023/01/10 03:55:22;;;;;;;2.47;1.40;;;;;;;6.92;91.41;100040.50;4987367;28;20064;-78
2023/01/10 03:57:48;;;;;;;4.25;1.60;;;;;;;6.93;91.04;100052.72;4968766;28;20130;-77
2023/01/10 04:00:16;;;;;;;3.92;1.30;;;;;;;6.93;90.34;100059.81;4966823;28;20042;-78
2023/01/10 04:02:43;;;;;;;3.45;1.40;;;;;;;6.87;90.38;100063.72;4987832;28;20481;-77
2023/01/10 04:05:10;;;;;;;3.65;1.50;;;;;;;6.89;89.65;100067.09;4955803;28;20073;-78
2023/01/10 04:07:37;;;;;;;2.08;1.20;;;;;;;6.80;90.20;100078.31;4968508;28;20152;-78
2023/01/10 04:10:05;;;;;;;4.78;1.38;;;;;;;6.70;90.62;100080.72;4980659;28;20054;-78
2023/01/10 04:12:32;;;;;;;3.58;1.27;;;;;;;6.66;91.01;100095.06;4966761;28;20100;-78
2023/01/10 04:15:00;;;;;;;3.22;1.75;;;;;;;6.66;91.31;100094.22;5003116;28;20132;-78
2023/01/10 04:17:26;;;;;;;5.72;1.45;;;;;;;6.63;90.86;100100.56;4970590;28;20061;-78
2023/01/10 04:19:53;;;;;;;18.80;7.78;;;;;;;6.58;91.24;100105.28;4967492;28;21490;-78
2023/01/10 04:22:20;;;;;;;11.55;5.00;;;;;;;6.62;91.16;100113.88;4980152;28;20058;-78
2023/01/10 04:24:50;;;;;;;15.93;8.35;;;;;;;6.62;91.51;100116.50;4972816;28;20458;-78
2023/01/10 04:27:17;;;;;;;23.48;12.68;;;;;;;6.59;91.81;100114.91;4963562;28;20064;-79
2023/01/10 04:29:43;;;;;;;27.60;14.13;;;;;;;6.57;92.27;100129.16;4967254;28;20465;-78
2023/01/10 04:32:10;;;;;;;32.00;17.48;;;;;;;6.53;92.32;100136.41;4971945;28;20042;-78
2023/01/10 04:34:37;;;;;;;29.77;14.60;;;;;;;6.57;92.24;100132.63;4959786;28;20050;-79
2023/01/10 04:37:04;;;;;;;8.57;4.22;;;;;;;6.56;92.56;100136.22;4965668;28;20050;-78
2023/01/10 04:39:31;;;;;;;15.82;9.45;;;;;;;6.55;92.59;100136.34;4982959;28;20524;-78
2023/01/10 04:41:57;;;;;;;22.00;11.98;;;;;;;6.56;92.58;100141.50;4965898;28;21172;-80
2023/01/10 04:44:24;;;;;;;10.80;8.20;;;;;;;6.58;92.30;100160.72;4966509;28;20597;-78
2023/01/10 04:46:51;;;;;;;9.02;8.05;;;;;;;6.60;92.23;100165.91;4980565;28;20112;-78
2023/01/10 04:49:17;;;;;;;8.15;5.93;;;;;;;6.62;92.09;100162.19;4967086;28;20452;-78
2023/01/10 04:51:44;;;;;;;7.75;5.35;;;;;;;6.56;92.46;100169.66;4963378;28;20042;-78
2023/01/10 04:54:11;;;;;;;4.95;4.45;;;;;;;6.60;92.20;100169.38;4966142;28;20696;-78
2023/01/10 04:56:38;;;;;;;5.85;3.47;;;;;;;6.57;92.44;100177.50;4978923;28;20054;-78
2023/01/10 04:59:05;;;;;;;8.15;3.38;;;;;;;6.58;92.91;100181.81;4976299;28;20038;-78
2023/01/10 05:01:34;;;;;;;3.55;2.40;;;;;;;6.54;93.10;100188.25;4984431;28;20103;-78
2023/01/10 05:04:02;;;;;;;4.72;2.42;;;;;;;6.59;92.65;100187.94;4967549;28;20494;-79
2023/01/10 05:06:28;;;;;;;3.08;2.28;;;;;;;6.60;92.80;100194.91;4976735;28;20170;-77
2023/01/10 05:08:56;;;;;;;3.22;2.30;;;;;;;6.57;93.14;100193.31;4967506;28;20034;-77
2023/01/10 05:11:22;;;;;;;7.93;3.13;;;;;;;6.62;92.37;100190.38;4978745;28;20043;-78
2023/01/10 05:13:50;;;;;;;4.78;1.80;;;;;;;6.58;92.27;100200.28;4948635;28;20043;-77
2023/01/10 05:16:17;;;;;;;5.13;1.83;;;;;;;6.63;92.13;100197.34;4962698;28;20109;-77
2023/01/10 05:18:44;;;;;;;9.43;2.42;;;;;;;6.62;91.77;100204.41;4941791;28;20042;-78
2023/01/10 05:21:12;;;;;;;9.15;3.30;;;;;;;6.62;91.68;100214.13;4954853;28;20042;-78
2023/01/10 05:23:39;;;;;;;6.07;2.50;;;;;;;6.61;91.69;100221.19;4962548;28;20047;-78
2023/01/10 05:26:12;;;;;;;5.30;2.15;;;;;;;6.61;91.16;100236.19;4992653;28;20050;-78
2023/01/10 05:28:39;;;;;;;11.02;3.83;;;;;;;6.64;91.43;100241.25;4977414;28;20082;-78
2023/01/10 05:31:08;;;;;;;17.20;5.40;;;;;;;6.64;91.27;100242.13;4983375;28;20038;-78
2023/01/10 05:33:34;;;;;;;12.10;4.85;;;;;;;6.69;90.79;100241.78;4968674;28;20096;-79
2023/01/10 05:36:08;;;;;;;9.27;2.90;;;;;;;6.62;90.89;100249.28;4981887;28;20046;-78
2023/01/10 05:38:35;;;;;;;13.90;2.42;;;;;;;6.64;91.10;100252.66;4994014;28;20069;-77
2023/01/10 05:41:02;;;;;;;7.55;2.00;;;;;;;6.61;91.21;100255.47;4986451;28;20046;-77
2023/01/10 05:43:29;;;;;;;7.97;2.58;;;;;;;6.64;90.95;100259.72;5001051;28;20042;-78
2023/01/10 05:45:56;;;;;;;8.30;2.70;;;;;;;6.67;90.57;100270.94;4979862;28;20050;-78
2023/01/10 05:48:22;;;;;;;3.90;2.20;;;;;;;6.73;90.14;100272.31;4984540;28;20042;-77
2023/01/10 05:50:50;;;;;;;7.22;2.63;;;;;;;6.70;90.34;100276.00;4982392;28;20046;-77
2023/01/10 05:53:18;;;;;;;7.05;2.60;;;;;;;6.74;90.27;100274.00;4975213;28;20050;-78
2023/01/10 05:55:55;;;;;;;10.57;2.80;;;;;;;6.68;89.69;100284.97;4979075;28;20046;-78
2023/01/10 05:58:22;;;;;;;6.50;2.63;;;;;;;6.74;89.66;100279.28;4995818;28;20042;-77
2023/01/10 06:00:49;;;;;;;10.93;2.65;;;;;;;6.71;90.19;100282.97;4985026;28;20551;-78
2023/01/10 06:03:16;;;;;;;7.63;3.13;;;;;;;6.71;89.95;100280.31;4963947;28;20122;-78
2023/01/10 06:05:42;;;;;;;8.50;2.88;;;;;;;6.71;90.07;100279.50;4945710;28;20134;-77
2023/01/10 06:08:09;;;;;;;4.20;2.53;;;;;;;6.70;90.40;100283.09;4965422;28;20050;-78
2023/01/10 06:10:36;;;;;;;7.05;2.58;;;;;;;6.71;90.51;100287.41;4948722;28;20046;-77
2023/01/10 06:13:04;;;;;;;5.78;2.40;;;;;;;6.65;90.75;100286.03;4982431;28;20046;-77
2023/01/10 06:15:32;;;;;;;9.60;2.83;;;;;;;6.67;90.79;100288.56;4974951;28;20479;-78
2023/01/10 06:17:59;;;;;;;8.52;2.63;;;;;;;6.60;90.96;100288.09;4961780;28;20042;-78
2023/01/10 06:20:26;;;;;;;9.27;3.05;;;;;;;6.60;90.93;100288.09;4964792;28;20046;-77
2023/01/10 06:22:53;;;;;;;12.43;3.45;;;;;;;6.62;90.89;100291.50;4975010;28;20080;-77
2023/01/10 06:25:20;;;;;;;16.27;3.05;;;;;;;6.57;90.65;100306.78;4987959;28;20105;-77
2023/01/10 06:27:46;;;;;;;13.05;4.50;;;;;;;6.55;91.12;100302.53;4969224;28;20121;-77
2023/01/10 06:30:13;;;;;;;8.45;2.80;;;;;;;6.53;90.96;100313.19;4993832;28;20449;-78
2023/01/10 06:32:41;;;;;;;10.75;3.30;;;;;;;6.55;90.59;100316.59;4951606;28;20445;-78
2023/01/10 06:35:08;;;;;;;7.40;3.03;;;;;;;6.52;90.78;100322.91;4983976;28;20081;-78
2023/01/10 06:37:35;;;;;;;9.82;3.38;;;;;;;6.54;90.93;100333.38;4954771;28;20113;-78
2023/01/10 06:40:02;;;;;;;9.82;3.70;;;;;;;6.56;90.52;100339.38;4966158;28;20174;-77
2023/01/10 06:42:29;;;;;;;14.98;4.43;;;;;;;6.55;90.41;100342.97;4967722;28;20046;-77
2023/01/10 06:44:56;;;;;;;14.90;4.65;;;;;;;6.54;90.55;100341.28;4966982;28;20043;-77
2023/01/10 06:47:22;;;;;;;9.18;3.70;;;;;;;6.57;90.05;100351.63;4939545;28;20137;-77
2023/01/10 06:49:49;;;;;;;13.68;5.35;;;;;;;6.57;90.08;100354.28;4996698;28;20042;-77
2023/01/10 06:52:16;;;;;;;15.18;4.57;;;;;;;6.55;90.26;100365.88;5010751;28;20050;-77
2023/01/10 06:54:42;;;;;;;18.52;6.05;;;;;;;6.57;90.45;100359.56;4951519;28;20042;-77
2023/01/10 06:57:09;;;;;;;11.05;3.97;;;;;;;6.57;89.69;100361.34;4982054;28;20038;-77
2023/01/10 06:59:36;;;;;;;12.57;4.32;;;;;;;6.52;90.52;100353.72;4973529;28;20046;-77
2023/01/10 07:02:02;;;;;;;9.52;3.85;;;;;;;6.49;90.31;100357.41;4962212;28;20427;-77
2023/01/10 07:04:29;;;;;;;14.88;3.60;;;;;;;6.49;89.78;100369.75;4988339;28;20154;-77
2023/01/10 07:06:56;;;;;;;16.20;4.82;;;;;;;6.39;90.38;100368.63;4984085;28;20454;-81
2023/01/10 07:09:23;;;;;;;15.85;4.88;;;;;;;6.40;90.16;100372.94;4987939;28;20045;-77
2023/01/10 07:11:49;;;;;;;13.60;3.58;;;;;;;6.33;90.11;100385.66;5012132;28;20166;-77
2023/01/10 07:14:16;;;;;;;8.73;3.00;;;;;;;6.29;90.34;100400.00;5004315;28;20049;-77
2023/01/10 07:16:43;;;;;;;9.07;2.80;;;;;;;6.29;90.09;100402.63;4969082;28;20453;-77
2023/01/10 07:19:12;;;;;;;16.88;3.13;;;;;;;6.33;89.61;100408.56;4981552;28;20049;-77
2023/01/10 07:21:39;;;;;;;18.60;3.00;;;;;;;6.32;89.83;100418.28;4979930;28;20045;-78
2023/01/10 07:24:06;;;;;;;15.45;3.75;;;;;;;6.39;89.70;100414.31;4968146;28;20046;-77
2023/01/10 07:26:33;;;;;;;11.32;3.10;;;;;;;6.36;89.92;100409.25;5001940;28;20060;-76
2023/01/10 07:29:00;;;;;;;8.68;3.08;;;;;;;6.40;89.94;100413.38;4988504;28;20054;-78
2023/01/10 07:31:26;;;;;;;15.30;3.03;;;;;;;6.43;89.82;100417.59;5002696;28;20129;-77
2023/01/10 07:33:53;;;;;;;12.68;3.55;;;;;;;6.45;89.57;100391.97;4975181;28;20064;-77
2023/01/10 07:36:20;;;;;;;13.57;4.22;;;;;;;6.45;89.37;100408.66;5002438;28;20061;-81
2023/01/10 07:38:47;;;;;;;12.25;3.30;;;;;;;6.46;89.57;100407.72;4998534;28;20052;-77
2023/01/10 07:41:14;;;;;;;17.13;3.15;;;;;;;6.52;89.07;100424.97;5000300;28;20116;-77
2023/01/10 07:43:40;;;;;;;16.00;3.47;;;;;;;6.56;88.55;100438.78;5000494;28;20468;-77
2023/01/10 07:46:08;;;;;;;11.25;3.03;;;;;;;6.56;88.45;100444.91;4989594;28;20038;-77
2023/01/10 07:48:35;;;;;;;12.50;3.00;;;;;;;6.56;88.48;100439.63;5001899;28;20046;-76
2023/01/10 07:51:03;;;;;;;18.25;2.85;;;;;;;6.52;88.51;100449.53;4965085;28;20120;-77
2023/01/10 07:53:30;;;;;;;18.27;3.10;;;;;;;6.45;89.88;100450.84;5006017;28;20042;-77
2023/01/10 07:55:58;;;;;;;12.65;2.85;;;;;;;6.44;90.50;100453.59;4999089;28;20042;-77
2023/01/10 07:58:25;;;;;;;14.35;2.42;;;;;;;6.43;90.76;100462.44;4981641;28;20046;-77
2023/01/10 08:00:59;;;;;;;18.30;3.53;;;;;;;6.41;90.90;100469.59;4967585;28;20046;-77
2023/01/10 08:03:26;;;;;;;9.48;2.80;;;;;;;6.44;91.12;100459.72;4968063;28;20055;-77
2023/01/10 08:06:01;;;;;;;12.88;2.90;;;;;;;6.32;90.96;100454.34;5002149;28;20050;-77
2023/01/10 08:08:28;;;;;;;8.25;2.85;;;;;;;6.47;90.54;100469.25;4990657;28;20042;-77
2023/01/10 08:10:55;;;;;;;10.15;2.63;;;;;;;6.46;90.21;100462.25;4987097;28;20381;-80
2023/01/10 08:13:22;;;;;;;14.38;2.63;;;;;;;6.50;89.58;100469.06;5000477;28;20053;-76
2023/01/10 08:15:50;;;;;;;15.57;2.78;;;;;;;6.51;88.66;100479.53;4987344;28;20038;-77
2023/01/10 08:18:19;;;;;;;16.15;2.75;;;;;;;6.56;88.62;100473.09;4983875;28;20076;-78
2023/01/10 08:20:48;;;;;;;13.57;2.70;;;;;;;6.55;88.30;100472.25;4984827;28;20447;-81
2023/01/10 08:23:15;;;;;;;15.55;3.40;;;;;;;6.60;87.86;100480.72;5002747;28;20056;-77
2023/01/10 08:25:42;;;;;;;12.02;3.25;;;;;;;6.63;87.47;100485.81;4977274;28;20042;-77
2023/01/10 08:28:09;;;;;;;21.08;3.90;;;;;;;6.64;87.55;100484.91;4985780;28;20046;-77
2023/01/10 08:30:36;;;;;;;16.50;3.85;;;;;;;6.67;87.22;100492.63;4960663;28;20042;-77
2023/01/10 08:33:05;;;;;;;18.55;2.97;;;;;;;6.64;87.05;100484.03;4980282;28;20121;-77
2023/01/10 08:35:42;;;;;;;17.80;3.95;;;;;;;6.55;86.37;100496.00;4975997;28;20046;-77
2023/01/10 08:38:10;;;;;;;13.20;2.80;;;;;;;6.62;86.79;100492.06;4979784;28;20054;-79
2023/01/10 08:40:37;;;;;;;16.80;3.88;;;;;;;6.62;86.59;100492.06;4984862;28;20078;-77
2023/01/10 08:43:06;;;;;;;16.83;4.47;;;;;;;6.61;86.89;100503.53;4998193;28;20057;-77
2023/01/10 08:45:33;;;;;;;12.88;3.60;;;;;;;6.62;86.92;100499.97;4999912;28;20543;-77
2023/01/10 08:48:00;;;;;;;14.07;3.58;;;;;;;6.63;86.42;100499.00;4983781;28;20049;-81
2023/01/10 08:50:27;;;;;;;13.23;3.50;;;;;;;6.65;86.40;100512.13;4978188;28;20038;-76
2023/01/10 08:52:57;;;;;;;13.50;4.03;;;;;;;6.62;86.41;100521.06;4967843;28;20041;-78
2023/01/10 08:55:24;;;;;;;15.82;4.00;;;;;;;6.63;86.67;100517.47;5000593;28;20156;-77
2023/01/10 08:57:51;;;;;;;15.90;2.97;;;;;;;6.68;86.21;100520.69;4985217;28;20049;-77
2023/01/10 09:00:18;;;;;;;7.15;2.60;;;;;;;6.67;86.37;100520.81;4997547;28;20145;-77
2023/01/10 09:02:45;;;;;;;15.95;3.20;;;;;;;6.66;86.73;100519.09;4979894;28;20042;-76
2023/01/10 09:05:12;;;;;;;14.48;3.40;;;;;;;6.71;86.46;100514.38;4969090;28;20069;-81
2023/01/10 09:07:57;;;;;;;10.85;2.75;;;;;;;6.72;86.31;100527.50;4986782;28;20057;-81
2023/01/10 09:10:24;;;;;;;15.10;2.88;;;;;;;6.76;86.16;100524.66;5017675;28;20042;-78
2023/01/10 09:12:53;;;;;;;15.93;3.13;;;;;;;6.78;86.22;100522.78;4993554;28;20046;-77
2023/01/10 09:15:39;;;;;;;15.88;3.10;;;;;;;6.80;86.10;100527.00;4997693;28;20073;-77
2023/01/10 09:18:06;;;;;;;19.77;4.03;;;;;;;6.83;85.72;100525.97;4958540;28;20101;-78
2023/01/10 09:20:35;;;;;;;7.47;2.47;;;;;;;6.86;86.23;100531.06;4965013;28;20164;-77
2023/01/10 09:23:11;;;;;;;18.15;2.47;;;;;;;6.79;86.01;100527.09;4977337;28;20069;-77
2023/01/10 09:25:38;;;;;;;10.30;2.30;;;;;;;6.85;86.78;100524.09;4981152;28;20049;-77
2023/01/10 09:28:05;;;;;;;13.10;2.65;;;;;;;6.85;85.88;100540.78;4963617;28;20047;-77
2023/01/10 09:30:31;;;;;;;9.65;2.85;;;;;;;6.86;86.15;100538.97;4986897;28;20053;-77
2023/01/10 09:32:58;;;;;;;11.85;2.63;;;;;;;6.88;86.06;100534.47;5000247;28;20073;-77
2023/01/10 09:35:26;;;;;;;10.30;2.60;;;;;;;6.90;84.92;100543.97;4980470;28;20046;-77
2023/01/10 09:37:59;;;;;;;10.85;3.17;;;;;;;6.94;84.45;100558.69;4966158;28;20042;-77
2023/01/10 09:40:45;;;;;;;11.98;2.78;;;;;;;6.91;84.03;100560.66;4964377;28;20073;-77
2023/01/10 09:43:32;;;;;;;5.63;2.53;;;;;;;6.98;82.84;100574.34;4993478;28;20053;-77
2023/01/10 09:46:04;;;;;;;13.00;2.30;;;;;;;7.08;84.04;100572.84;4984818;28;20050;-77
2023/01/10 09:48:42;;;;;;;15.07;2.78;;;;;;;7.09;83.37;100577.16;4970104;28;20049;-77
2023/01/10 09:51:18;;;;;;;13.07;4.20;;;;;;;7.09;81.90;100575.38;4972469;28;20417;-77
2023/01/10 09:53:45;;;;;;;11.82;3.00;;;;;;;7.17;83.26;100586.31;4959692;28;20051;-77
2023/01/10 09:56:13;;;;;;;16.35;2.60;;;;;;;7.21;83.87;100586.97;4997459;28;20048;-77
2023/01/10 09:58:41;;;;;;;14.18;2.70;;;;;;;7.21;83.05;100586.13;4982840;28;20047;-77
2023/01/10 10:01:15;;;;;;;5.28;2.05;;;;;;;7.18;82.94;100592.44;4965972;28;20594;-77
2023/01/10 10:03:54;;;;;;;6.97;2.53;;;;;;;7.20;83.29;100592.34;4996651;28;20124;-78
2023/01/10 10:06:22;;;;;;;11.93;2.42;;;;;;;7.28;83.89;100588.28;4979235;28;20042;-78
2023/01/10 10:08:49;;;;;;;13.95;3.25;;;;;;;7.32;84.10;100591.56;4961089;28;20054;-77
2023/01/10 10:11:25;;;;;;;13.52;2.83;;;;;;;7.32;83.96;100589.78;4983876;28;20049;-77
2023/01/10 10:14:05;;;;;;;18.02;2.40;;;;;;;7.29;83.77;100583.84;4996089;28;20069;-77
2023/01/10 10:16:34;;;;;;;12.57;2.28;;;;;;;7.34;84.13;100579.97;4972660;28;25136;-77
2023/01/10 10:19:39;;;;;;;13.45;2.70;;;;;;;7.32;83.74;100591.56;4990414;28;20437;-77
2023/01/10 10:22:26;;;;;;;10.98;2.55;;;;;;;7.34;84.07;100595.81;4982492;28;20053;-77
2023/01/10 10:25:05;;;;;;;8.38;2.10;;;;;;;7.33;83.63;100603.84;4967304;28;20416;-78
2023/01/10 10:27:40;;;;;;;9.98;2.50;;;;;;;7.35;83.87;100589.59;4992212;28;20042;-77
2023/01/10 10:30:31;;;;;;;11.82;3.08;;;;;;;7.32;83.57;100602.16;4984027;28;20042;-77
2023/01/10 10:33:04;;;;;;;11.18;2.95;;;;;;;7.30;83.41;100599.63;4963335;28;20053;-78
2023/01/10 10:35:34;;;;;;;14.20;3.47;;;;;;;7.28;83.83;100593.56;5006027;28;20054;-77
2023/01/10 10:38:05;;;;;;;16.80;2.97;;;;;;;7.32;83.92;100594.22;4982929;28;20057;-77
2023/01/10 10:40:36;;;;;;;16.02;3.30;;;;;;;7.32;83.87;100586.28;4968075;28;20206;-77
2023/01/10 10:43:26;;;;;;;15.65;3.13;;;;;;;7.31;83.77;100589.88;4999985;28;20074;-77
2023/01/10 10:45:54;;;;;;;20.90;4.15;;;;;;;7.34;84.10;100587.03;5001989;28;20116;-77
2023/01/10 10:48:26;;;;;;;19.33;4.07;;;;;;;7.32;83.76;100594.22;4959518;28;20050;-77
2023/01/10 10:50:59;;;;;;;19.02;4.80;;;;;;;7.30;83.52;100583.75;4968330;28;20470;-77
2023/01/10 10:53:26;;;;;;;18.65;4.57;;;;;;;7.32;83.39;100594.22;5002867;28;20124;-77
2023/01/10 10:55:53;;;;;;;13.35;4.10;;;;;;;7.32;83.56;100607.44;4984243;28;20489;-77
2023/01/10 10:58:19;;;;;;;14.60;3.85;;;;;;;7.29;83.58;100600.53;4971191;28;20053;-77
2023/01/10 11:00:46;;;;;;;22.98;4.78;;;;;;;7.25;83.50;100606.97;4974407;28;20054;-77
2023/01/10 11:03:51;;;;;;;16.58;3.67;;;;;;;7.19;83.43;100617.91;4968441;28;20494;-77
2023/01/10 11:06:19;;;;;;;13.23;3.70;;;;;;;7.25;83.81;100612.25;4911371;28;20050;-78
2023/01/10 11:08:47;;;;;;;14.02;3.92;;;;;;;7.24;83.83;100628.19;4964384;28;20047;-77
2023/01/10 11:11:19;;;;;;;10.32;3.75;;;;;;;7.22;83.85;100622.16;5004966;28;20069;-77
2023/01/10 11:13:50;;;;;;;22.05;5.38;;;;;;;7.25;83.80;100620.19;4953613;28;20070;-77
2023/01/10 11:16:35;;;;;;;14.73;4.20;;;;;;;7.18;83.89;100625.00;4979641;28;20520;-77
2023/01/10 11:19:25;;;;;;;19.58;4.30;;;;;;;7.18;83.80;100630.28;4983559;28;20045;-76
2023/01/10 11:22:05;;;;;;;20.58;4.32;;;;;;;7.19;83.61;100625.84;4986645;28;20164;-77
2023/01/10 11:24:35;;;;;;;18.55;4.30;;;;;;;7.23;83.96;100626.50;4998277;28;20546;-77
2023/01/10 11:27:13;;;;;;;17.80;4.20;;;;;;;7.22;84.10;100619.50;4968810;28;20057;-78
2023/01/10 11:29:47;;;;;;;15.00;3.80;;;;;;;7.17;84.64;100619.78;4989353;28;20054;-77
2023/01/10 11:32:17;;;;;;;14.10;3.47;;;;;;;7.19;84.30;100620.56;4982737;28;20049;-78
2023/01/10 11:34:53;;;;;;;15.63;3.33;;;;;;;7.18;84.05;100618.88;5002118;28;20041;-77
2023/01/10 11:37:27;;;;;;;18.10;4.18;;;;;;;7.23;84.12;100616.78;4985718;28;20049;-77
2023/01/10 11:40:17;;;;;;;17.23;4.63;;;;;;;7.18;84.43;100598.56;4955285;28;20065;-77
2023/01/10 11:42:45;;;;;;;13.60;3.70;;;;;;;7.26;84.74;100599.91;5009735;28;20073;-77
2023/01/10 11:45:18;;;;;;;23.80;4.05;;;;;;;7.25;84.77;100603.47;4987072;28;20049;-77
2023/01/10 11:47:48;;;;;;;15.30;3.90;;;;;;;7.27;84.46;100602.44;4998446;28;20038;-77
2023/01/10 11:50:20;;;;;;;20.80;4.57;;;;;;;7.26;84.43;100597.25;4986688;28;20064;-79
2023/01/10 11:52:47;;;;;;;18.40;3.55;;;;;;;7.28;84.48;100600.66;5004341;28;20049;-77
2023/01/10 11:55:20;;;;;;;16.38;3.72;;;;;;;7.27;84.33;100602.44;4986769;28;20129;-81